sensor_id;sensor_type;location;lat;lon;timestamp;pressure;altitude;pressure_sealevel;temperature;humidity
10167;BME280;62970;53.130;8.244;2022-09-03T18:32:06;101513.53;;;20.73;29.96
10167;BME280;62970;53.130;8.244;2022-09-03T18:34:47;101517.22;;;20.53;30.44
10167;BME280;62970;53.130;8.244;2022-09-03T18:37:30;101515.59;;;20.33;30.22
10167;BME280;62970;53.130;8.244;2022-09-03T18:40:16;101519.22;;;20.15;30.41
10167;BME280;62970;53.130;8.244;2022-09-03T18:43:08;101527.25;;;19.96;30.82
10167;BME280;62970;53.130;8.244;2022-09-03T18:46:00;101530.75;;;19.80;31.09
10167;BME280;62970;53.130;8.244;2022-09-03T18:48:54;101539.50;;;19.63;31.03
10167;BME280;62970;53.130;8.244;2022-09-03T18:51:47;101549.09;;;19.46;31.42
10167;BME280;62970;53.130;8.244;2022-09-03T18:57:08;101547.56;;;19.24;31.34
10167;BME280;62970;53.130;8.244;2022-09-03T19:00:06;101552.28;;;19.17;31.67
10167;BME280;62970;53.130;8.244;2022-09-03T19:03:09;101559.66;;;19.10;31.59
10167;BME280;62970;53.130;8.244;2022-09-03T19:06:11;101557.28;;;19.04;31.99
10167;BME280;62970;53.130;8.244;2022-09-03T19:09:05;101558.41;;;18.99;32.06
10167;BME280;62970;53.130;8.244;2022-09-03T19:12:01;101558.63;;;18.94;32.04
10167;BME280;62970;53.130;8.244;2022-09-03T19:14:51;101564.91;;;18.92;31.73
10167;BME280;62970;53.130;8.244;2022-09-03T19:18:02;101559.97;;;18.84;31.86
10167;BME280;62970;53.130;8.244;2022-09-03T19:21:02;101571.66;;;18.78;32.33
10167;BME280;62970;53.130;8.244;2022-09-03T19:23:46;101572.88;;;18.71;32.38
10167;BME280;62970;53.130;8.244;2022-09-03T19:26:39;101575.00;;;18.63;32.53
10167;BME280;62970;53.130;8.244;2022-09-03T19:29:40;101579.78;;;18.55;32.63
10167;BME280;62970;53.130;8.244;2022-09-03T19:32:34;101581.03;;;18.46;32.48
10167;BME280;62970;53.130;8.244;2022-09-03T19:35:23;101585.78;;;18.38;32.49
10167;BME280;62970;53.130;8.244;2022-09-03T19:38:18;101585.31;;;18.29;32.69
10167;BME280;62970;53.130;8.244;2022-09-03T19:41:16;101590.03;;;18.21;32.75
10167;BME280;62970;53.130;8.244;2022-09-03T19:44:25;101590.44;;;18.11;32.87
10167;BME280;62970;53.130;8.244;2022-09-03T19:47:15;101596.03;;;18.04;32.94
10167;BME280;62970;53.130;8.244;2022-09-03T19:50:11;101592.84;;;17.96;33.02
10167;BME280;62970;53.130;8.244;2022-09-03T19:52:58;101597.53;;;17.89;33.02
10167;BME280;62970;53.130;8.244;2022-09-03T19:55:47;101598.69;;;17.82;32.69
10167;BME280;62970;53.130;8.244;2022-09-03T19:58:32;101602.47;;;17.75;33.24
10167;BME280;62970;53.130;8.244;2022-09-03T20:01:17;101608.00;;;17.69;33.26
10167;BME280;62970;53.130;8.244;2022-09-03T20:04:09;101607.38;;;17.62;32.99
10167;BME280;62970;53.130;8.244;2022-09-03T20:06:52;101601.44;;;17.57;32.99
10167;BME280;62970;53.130;8.244;2022-09-03T20:09:38;101601.75;;;17.49;33.30
10167;BME280;62970;53.130;8.244;2022-09-03T20:12:25;101601.06;;;17.44;33.14
10167;BME280;62970;53.130;8.244;2022-09-03T20:14:57;101606.50;;;17.40;33.41
10167;BME280;62970;53.130;8.244;2022-09-03T20:17:36;101614.63;;;17.34;33.08
10167;BME280;62970;53.130;8.244;2022-09-03T20:20:15;101617.44;;;17.29;33.64
10167;BME280;62970;53.130;8.244;2022-09-03T20:22:52;101619.38;;;17.24;33.39
10167;BME280;62970;53.130;8.244;2022-09-03T20:25:42;101621.34;;;17.19;33.61
10167;BME280;62970;53.130;8.244;2022-09-03T20:28:33;101621.56;;;17.13;33.42
10167;BME280;62970;53.130;8.244;2022-09-03T20:31:12;101622.59;;;17.09;33.66
10167;BME280;62970;53.130;8.244;2022-09-03T20:34:14;101623.75;;;17.02;33.98
10167;BME280;62970;53.130;8.244;2022-09-03T20:36:56;101626.50;;;16.99;33.81
10167;BME280;62970;53.130;8.244;2022-09-03T20:39:44;101625.81;;;16.94;34.31
10167;BME280;62970;53.130;8.244;2022-09-03T20:42:34;101629.53;;;16.88;33.85
10167;BME280;62970;53.130;8.244;2022-09-03T20:45:17;101630.59;;;16.82;34.17
10167;BME280;62970;53.130;8.244;2022-09-03T20:48:02;101624.69;;;16.76;33.90
10167;BME280;62970;53.130;8.244;2022-09-03T20:50:48;101624.00;;;16.71;34.71
10167;BME280;62970;53.130;8.244;2022-09-03T20:54:03;101633.84;;;16.66;33.88
10167;BME280;62970;53.130;8.244;2022-09-03T20:57:15;101634.06;;;16.59;34.04
10167;BME280;62970;53.130;8.244;2022-09-03T21:00:01;101641.25;;;16.54;34.19
10167;BME280;62970;53.130;8.244;2022-09-03T21:03:10;101643.16;;;16.49;34.24
10167;BME280;62970;53.130;8.244;2022-09-03T21:05:51;101642.41;;;16.46;34.40
10167;BME280;62970;53.130;8.244;2022-09-03T21:08:44;101639.97;;;16.40;34.85
10167;BME280;62970;53.130;8.244;2022-09-03T21:11:21;101649.69;;;16.38;34.85
10167;BME280;62970;53.130;8.244;2022-09-03T21:14:02;101659.53;;;16.33;35.11
10167;BME280;62970;53.130;8.244;2022-09-03T21:16:44;101657.91;;;16.28;34.94
10167;BME280;62970;53.130;8.244;2022-09-03T21:19:31;101663.28;;;16.25;35.31
10167;BME280;62970;53.130;8.244;2022-09-03T21:22:08;101660.78;;;16.21;35.36
10167;BME280;62970;53.130;8.244;2022-09-03T21:24:49;101667.06;;;16.17;35.02
10167;BME280;62970;53.130;8.244;2022-09-03T21:27:25;101668.94;;;16.13;35.49
10167;BME280;62970;53.130;8.244;2022-09-03T21:30:02;101668.19;;;16.10;35.19
10167;BME280;62970;53.130;8.244;2022-09-03T21:32:39;101663.94;;;16.06;35.36
10167;BME280;62970;53.130;8.244;2022-09-03T21:35:20;101672.81;;;16.02;35.23
10167;BME280;62970;53.130;8.244;2022-09-03T21:37:58;101676.41;;;15.99;35.35
10167;BME280;62970;53.130;8.244;2022-09-03T21:40:34;101666.91;;;15.95;35.85
10167;BME280;62970;53.130;8.244;2022-09-03T21:43:10;101677.53;;;15.92;35.64
10167;BME280;62970;53.130;8.244;2022-09-03T21:45:48;101678.53;;;15.88;35.81
10167;BME280;62970;53.130;8.244;2022-09-03T21:48:24;101684.78;;;15.84;36.21
10167;BME280;62970;53.130;8.244;2022-09-03T21:50:59;101684.94;;;15.79;36.27
10167;BME280;62970;53.130;8.244;2022-09-03T21:53:34;101685.97;;;15.74;36.64
10167;BME280;62970;53.130;8.244;2022-09-03T21:56:37;101685.25;;;15.69;35.76
10167;BME280;62970;53.130;8.244;2022-09-03T21:59:28;101684.50;;;15.65;35.96
10167;BME280;62970;53.130;8.244;2022-09-03T22:02:07;101688.97;;;15.61;36.47
10167;BME280;62970;53.130;8.244;2022-09-03T22:04:41;101689.03;;;15.58;36.40
10167;BME280;62970;53.130;8.244;2022-09-03T22:07:24;101697.06;;;15.54;36.27
10167;BME280;62970;53.130;8.244;2022-09-03T22:10:05;101694.47;;;15.52;36.65
10167;BME280;62970;53.130;8.244;2022-09-03T22:12:42;101690.19;;;15.50;36.78
10167;BME280;62970;53.130;8.244;2022-09-03T22:15:15;101685.88;;;15.47;36.65
10167;BME280;62970;53.130;8.244;2022-09-03T22:17:49;101687.72;;;15.44;36.55
10167;BME280;62970;53.130;8.244;2022-09-03T22:20:22;101691.31;;;15.41;36.63
10167;BME280;62970;53.130;8.244;2022-09-03T22:22:59;101696.69;;;15.37;36.73
10167;BME280;62970;53.130;8.244;2022-09-03T22:25:38;101706.41;;;15.35;36.92
10167;BME280;62970;53.130;8.244;2022-09-03T22:28:13;101694.25;;;15.30;37.18
10167;BME280;62970;53.130;8.244;2022-09-03T22:30:54;101701.34;;;15.27;37.25
10167;BME280;62970;53.130;8.244;2022-09-03T22:33:31;101702.31;;;15.24;37.18
10167;BME280;62970;53.130;8.244;2022-09-03T22:36:11;101703.31;;;15.20;36.94
10167;BME280;62970;53.130;8.244;2022-09-03T22:39:11;101704.25;;;15.16;37.09
10167;BME280;62970;53.130;8.244;2022-09-03T22:42:19;101699.13;;;15.12;37.16
10167;BME280;62970;53.130;8.244;2022-09-03T22:45:20;101701.94;;;15.06;36.96
10167;BME280;62970;53.130;8.244;2022-09-03T22:48:03;101695.91;;;15.02;37.37
10167;BME280;62970;53.130;8.244;2022-09-03T22:50:41;101702.09;;;14.99;37.62
10167;BME280;62970;53.130;8.244;2022-09-03T22:53:20;101696.94;;;14.96;37.36
10167;BME280;62970;53.130;8.244;2022-09-03T22:56:04;101697.00;;;14.93;37.48
10167;BME280;62970;53.130;8.244;2022-09-03T22:58:39;101700.59;;;14.91;37.83
10167;BME280;62970;53.130;8.244;2022-09-03T23:01:17;101706.78;;;14.88;37.74
10167;BME280;62970;53.130;8.244;2022-09-03T23:03:53;101694.63;;;14.84;37.81
10167;BME280;62970;53.130;8.244;2022-09-03T23:06:30;101694.72;;;14.81;37.77
10167;BME280;62970;53.130;8.244;2022-09-03T23:09:04;101694.84;;;14.77;37.93
10167;BME280;62970;53.130;8.244;2022-09-03T23:11:41;101697.53;;;14.74;37.84
10167;BME280;62970;53.130;8.244;2022-09-03T23:14:15;101691.50;;;14.70;38.05
10167;BME280;62970;53.130;8.244;2022-09-03T23:16:49;101693.38;;;14.66;38.12
10167;BME280;62970;53.130;8.244;2022-09-03T23:19:27;101692.53;;;14.63;38.18
10167;BME280;62970;53.130;8.244;2022-09-03T23:22:09;101693.53;;;14.59;38.15
10167;BME280;62970;53.130;8.244;2022-09-03T23:24:43;101684.00;;;14.55;38.25
10167;BME280;62970;53.130;8.244;2022-09-03T23:27:22;101680.63;;;14.50;38.68
10167;BME280;62970;53.130;8.244;2022-09-03T23:29:58;101684.25;;;14.46;38.55
10167;BME280;62970;53.130;8.244;2022-09-03T23:32:29;101684.31;;;14.43;38.69
10167;BME280;62970;53.130;8.244;2022-09-03T23:34:58;101687.91;;;14.39;38.76
10167;BME280;62970;53.130;8.244;2022-09-03T23:37:44;101692.41;;;14.33;38.64
10167;BME280;62970;53.130;8.244;2022-09-03T23:40:44;101684.66;;;14.29;38.68
10167;BME280;62970;53.130;8.244;2022-09-03T23:44:02;101689.16;;;14.24;38.98
10167;BME280;62970;53.130;8.244;2022-09-03T23:46:39;101688.38;;;14.20;38.79
10167;BME280;62970;53.130;8.244;2022-09-03T23:49:26;101696.41;;;14.14;39.15
10167;BME280;62970;53.130;8.244;2022-09-03T23:52:16;101691.22;;;14.11;38.90
10167;BME280;62970;53.130;8.244;2022-09-03T23:54:53;101694.78;;;14.09;39.57
10167;BME280;62970;53.130;8.244;2022-09-03T23:57:33;101701.00;;;14.04;39.60
